sensor_id;sensor_type;location;lat;lon;timestamp;P1;durP1;ratioP1;P2;durP2;ratioP2
31754;SDS011;18325;52.018;4.726;2024-03-23T00:55:37;10.60;;;2.93;;
31754;SDS011;18325;52.018;4.726;2024-03-23T00:58:04;12.07;;;2.93;;
31754;SDS011;18325;52.018;4.726;2024-03-23T01:00:29;8.50;;;2.67;;
31754;SDS011;18325;52.018;4.726;2024-03-23T01:02:56;8.20;;;2.70;;
31754;SDS011;18325;52.018;4.726;2024-03-23T01:05:22;8.07;;;2.97;;
31754;SDS011;18325;52.018;4.726;2024-03-23T01:07:48;6.67;;;2.90;;
31754;SDS011;18325;52.018;4.726;2024-03-23T01:10:14;14.73;;;3.23;;
31754;SDS011;18325;52.018;4.726;2024-03-23T01:12:41;10.90;;;2.80;;
31754;SDS011;18325;52.018;4.726;2024-03-23T01:15:07;12.63;;;2.70;;
31754;SDS011;18325;52.018;4.726;2024-03-23T01:17:34;15.80;;;2.50;;
31754;SDS011;18325;52.018;4.726;2024-03-23T01:20:00;9.30;;;3.53;;
31754;SDS011;18325;52.018;4.726;2024-03-23T01:22:26;8.37;;;2.47;;
31754;SDS011;18325;52.018;4.726;2024-03-23T01:24:52;9.33;;;2.20;;
31754;SDS011;18325;52.018;4.726;2024-03-23T01:27:18;9.27;;;2.43;;
31754;SDS011;18325;52.018;4.726;2024-03-23T01:29:45;5.03;;;2.10;;
31754;SDS011;18325;52.018;4.726;2024-03-23T01:32:11;8.37;;;2.20;;
31754;SDS011;18325;52.018;4.726;2024-03-23T01:34:37;5.97;;;2.67;;
31754;SDS011;18325;52.018;4.726;2024-03-23T01:37:03;3.90;;;2.07;;
31754;SDS011;18325;52.018;4.726;2024-03-23T01:39:29;7.50;;;2.47;;
31754;SDS011;18325;52.018;4.726;2024-03-23T01:41:56;5.37;;;2.13;;
31754;SDS011;18325;52.018;4.726;2024-03-23T01:44:21;6.77;;;2.23;;
31754;SDS011;18325;52.018;4.726;2024-03-23T01:46:49;8.23;;;1.87;;
31754;SDS011;18325;52.018;4.726;2024-03-23T01:49:15;7.00;;;2.23;;
31754;SDS011;18325;52.018;4.726;2024-03-23T01:51:41;11.63;;;2.60;;
31754;SDS011;18325;52.018;4.726;2024-03-23T01:54:08;7.03;;;2.10;;
31754;SDS011;18325;52.018;4.726;2024-03-23T01:56:35;6.53;;;2.10;;
31754;SDS011;18325;52.018;4.726;2024-03-23T01:59:01;4.87;;;1.50;;
31754;SDS011;18325;52.018;4.726;2024-03-23T02:01:27;9.97;;;2.60;;
31754;SDS011;18325;52.018;4.726;2024-03-23T02:03:54;7.23;;;2.10;;
31754;SDS011;18325;52.018;4.726;2024-03-23T02:06:21;9.17;;;1.70;;
31754;SDS011;18325;52.018;4.726;2024-03-23T02:08:47;4.50;;;1.80;;
31754;SDS011;18325;52.018;4.726;2024-03-23T02:11:14;3.93;;;1.73;;
31754;SDS011;18325;52.018;4.726;2024-03-23T02:13:39;10.47;;;2.43;;
31754;SDS011;18325;52.018;4.726;2024-03-23T02:16:06;4.30;;;1.30;;
31754;SDS011;18325;52.018;4.726;2024-03-23T02:18:31;13.27;;;1.73;;
31754;SDS011;18325;52.018;4.726;2024-03-23T02:20:59;6.67;;;1.80;;
31754;SDS011;18325;52.018;4.726;2024-03-23T02:23:26;9.27;;;1.50;;
31754;SDS011;18325;52.018;4.726;2024-03-23T02:25:53;5.33;;;1.10;;
31754;SDS011;18325;52.018;4.726;2024-03-23T03:17:03;6.87;;;1.53;;
31754;SDS011;18325;52.018;4.726;2024-03-23T03:19:30;3.00;;;1.20;;
31754;SDS011;18325;52.018;4.726;2024-03-23T03:21:55;4.83;;;1.43;;
31754;SDS011;18325;52.018;4.726;2024-03-23T03:24:23;6.77;;;1.47;;
31754;SDS011;18325;52.018;4.726;2024-03-23T03:26:50;4.27;;;1.10;;
31754;SDS011;18325;52.018;4.726;2024-03-23T03:29:16;5.47;;;1.10;;
31754;SDS011;18325;52.018;4.726;2024-03-23T03:31:43;2.47;;;0.87;;
31754;SDS011;18325;52.018;4.726;2024-03-23T03:34:10;7.07;;;2.07;;
31754;SDS011;18325;52.018;4.726;2024-03-23T03:36:35;12.07;;;1.40;;
31754;SDS011;18325;52.018;4.726;2024-03-23T03:39:02;8.07;;;1.50;;
31754;SDS011;18325;52.018;4.726;2024-03-23T03:41:28;7.87;;;1.40;;
31754;SDS011;18325;52.018;4.726;2024-03-23T03:43:54;5.63;;;1.47;;
31754;SDS011;18325;52.018;4.726;2024-03-23T03:46:20;4.20;;;1.23;;
31754;SDS011;18325;52.018;4.726;2024-03-23T03:48:48;4.53;;;1.27;;
31754;SDS011;18325;52.018;4.726;2024-03-23T03:51:13;4.70;;;1.40;;
31754;SDS011;18325;52.018;4.726;2024-03-23T03:53:40;3.90;;;1.47;;
31754;SDS011;18325;52.018;4.726;2024-03-23T03:56:06;8.13;;;1.43;;
31754;SDS011;18325;52.018;4.726;2024-03-23T03:58:32;3.13;;;1.07;;
31754;SDS011;18325;52.018;4.726;2024-03-23T04:00:58;4.73;;;0.97;;
31754;SDS011;18325;52.018;4.726;2024-03-23T04:03:26;3.33;;;1.77;;
31754;SDS011;18325;52.018;4.726;2024-03-23T04:05:53;1.03;;;0.80;;
31754;SDS011;18325;52.018;4.726;2024-03-23T04:08:19;4.33;;;1.07;;
31754;SDS011;18325;52.018;4.726;2024-03-23T04:10:45;4.30;;;1.50;;
31754;SDS011;18325;52.018;4.726;2024-03-23T04:13:12;8.17;;;1.47;;
31754;SDS011;18325;52.018;4.726;2024-03-23T04:15:37;1.80;;;0.97;;
31754;SDS011;18325;52.018;4.726;2024-03-23T04:18:04;5.27;;;1.13;;
31754;SDS011;18325;52.018;4.726;2024-03-23T04:20:29;3.90;;;1.13;;
31754;SDS011;18325;52.018;4.726;2024-03-23T04:22:58;11.57;;;1.20;;
31754;SDS011;18325;52.018;4.726;2024-03-23T04:25:24;3.23;;;1.53;;
31754;SDS011;18325;52.018;4.726;2024-03-23T04:27:50;6.80;;;1.10;;
31754;SDS011;18325;52.018;4.726;2024-03-23T04:30:16;3.80;;;1.27;;
31754;SDS011;18325;52.018;4.726;2024-03-23T04:32:43;2.93;;;1.30;;
31754;SDS011;18325;52.018;4.726;2024-03-23T04:35:09;5.90;;;1.57;;
31754;SDS011;18325;52.018;4.726;2024-03-23T04:37:35;4.47;;;1.07;;
31754;SDS011;18325;52.018;4.726;2024-03-23T04:40:04;7.53;;;1.40;;
31754;SDS011;18325;52.018;4.726;2024-03-23T04:42:32;8.67;;;1.53;;
31754;SDS011;18325;52.018;4.726;2024-03-23T04:44:58;3.90;;;1.30;;
31754;SDS011;18325;52.018;4.726;2024-03-23T04:47:25;5.70;;;1.13;;
31754;SDS011;18325;52.018;4.726;2024-03-23T04:49:52;4.57;;;0.80;;
31754;SDS011;18325;52.018;4.726;2024-03-23T04:52:18;7.00;;;1.20;;
31754;SDS011;18325;52.018;4.726;2024-03-23T04:54:45;5.43;;;1.43;;
31754;SDS011;18325;52.018;4.726;2024-03-23T04:57:12;6.03;;;1.17;;
31754;SDS011;18325;52.018;4.726;2024-03-23T04:59:38;6.07;;;1.50;;
31754;SDS011;18325;52.018;4.726;2024-03-23T05:02:04;4.37;;;1.23;;
31754;SDS011;18325;52.018;4.726;2024-03-23T05:04:30;5.50;;;1.07;;
31754;SDS011;18325;52.018;4.726;2024-03-23T05:06:57;2.20;;;0.97;;
31754;SDS011;18325;52.018;4.726;2024-03-23T05:09:22;5.13;;;1.50;;
31754;SDS011;18325;52.018;4.726;2024-03-23T05:11:49;5.40;;;1.40;;
31754;SDS011;18325;52.018;4.726;2024-03-23T05:14:17;2.33;;;1.20;;
31754;SDS011;18325;52.018;4.726;2024-03-23T05:16:43;2.00;;;0.77;;
31754;SDS011;18325;52.018;4.726;2024-03-23T05:19:09;3.53;;;1.10;;
31754;SDS011;18325;52.018;4.726;2024-03-23T05:21:35;7.73;;;1.63;;
31754;SDS011;18325;52.018;4.726;2024-03-23T05:24:01;3.97;;;1.37;;
31754;SDS011;18325;52.018;4.726;2024-03-23T05:26:28;4.47;;;1.63;;
31754;SDS011;18325;52.018;4.726;2024-03-23T05:28:54;8.17;;;1.83;;
31754;SDS011;18325;52.018;4.726;2024-03-23T05:31:26;4.00;;;1.30;;
31754;SDS011;18325;52.018;4.726;2024-03-23T05:33:52;4.37;;;1.37;;
31754;SDS011;18325;52.018;4.726;2024-03-23T05:36:18;5.27;;;1.30;;
31754;SDS011;18325;52.018;4.726;2024-03-23T05:38:44;5.03;;;1.20;;
31754;SDS011;18325;52.018;4.726;2024-03-23T05:41:10;6.27;;;1.63;;
31754;SDS011;18325;52.018;4.726;2024-03-23T05:43:36;6.13;;;1.30;;
31754;SDS011;18325;52.018;4.726;2024-03-23T05:46:03;5.40;;;1.63;;
31754;SDS011;18325;52.018;4.726;2024-03-23T05:48:30;5.77;;;1.40;;
31754;SDS011;18325;52.018;4.726;2024-03-23T05:50:57;6.17;;;1.37;;
31754;SDS011;18325;52.018;4.726;2024-03-23T05:53:23;3.63;;;0.90;;
31754;SDS011;18325;52.018;4.726;2024-03-23T05:55:50;9.27;;;1.60;;
31754;SDS011;18325;52.018;4.726;2024-03-23T05:58:16;5.47;;;2.10;;
31754;SDS011;18325;52.018;4.726;2024-03-23T06:00:43;8.90;;;1.50;;
31754;SDS011;18325;52.018;4.726;2024-03-23T06:03:09;5.60;;;1.73;;
31754;SDS011;18325;52.018;4.726;2024-03-23T06:05:37;4.43;;;1.10;;
31754;SDS011;18325;52.018;4.726;2024-03-23T06:08:03;5.43;;;1.83;;
31754;SDS011;18325;52.018;4.726;2024-03-23T06:10:30;5.07;;;1.50;;
31754;SDS011;18325;52.018;4.726;2024-03-23T06:12:56;4.50;;;1.40;;
31754;SDS011;18325;52.018;4.726;2024-03-23T06:15:24;5.07;;;2.03;;
31754;SDS011;18325;52.018;4.726;2024-03-23T06:17:49;3.17;;;1.30;;
31754;SDS011;18325;52.018;4.726;2024-03-23T06:20:16;7.53;;;1.50;;
31754;SDS011;18325;52.018;4.726;2024-03-23T06:22:43;5.47;;;2.03;;
31754;SDS011;18325;52.018;4.726;2024-03-23T06:25:09;6.13;;;1.73;;
31754;SDS011;18325;52.018;4.726;2024-03-23T06:27:37;9.17;;;1.70;;
31754;SDS011;18325;52.018;4.726;2024-03-23T06:30:04;8.40;;;2.07;;
31754;SDS011;18325;52.018;4.726;2024-03-23T06:32:30;6.23;;;2.13;;
31754;SDS011;18325;52.018;4.726;2024-03-23T06:34:57;2.07;;;1.50;;
31754;SDS011;18325;52.018;4.726;2024-03-23T06:37:22;9.00;;;2.07;;
31754;SDS011;18325;52.018;4.726;2024-03-23T06:39:50;2.60;;;1.30;;
31754;SDS011;18325;52.018;4.726;2024-03-23T06:42:16;7.07;;;1.80;;
31754;SDS011;18325;52.018;4.726;2024-03-23T06:44:43;3.63;;;1.80;;
31754;SDS011;18325;52.018;4.726;2024-03-23T06:47:08;5.03;;;1.60;;
31754;SDS011;18325;52.018;4.726;2024-03-23T06:49:35;3.70;;;1.70;;
31754;SDS011;18325;52.018;4.726;2024-03-23T06:52:00;4.87;;;1.53;;
31754;SDS011;18325;52.018;4.726;2024-03-23T06:54:27;4.43;;;1.87;;
31754;SDS011;18325;52.018;4.726;2024-03-23T06:56:54;4.83;;;1.30;;
31754;SDS011;18325;52.018;4.726;2024-03-23T06:59:21;9.30;;;1.77;;
31754;SDS011;18325;52.018;4.726;2024-03-23T07:01:46;5.77;;;1.80;;
31754;SDS011;18325;52.018;4.726;2024-03-23T07:04:13;4.43;;;1.03;;
31754;SDS011;18325;52.018;4.726;2024-03-23T07:06:42;2.67;;;1.10;;
31754;SDS011;18325;52.018;4.726;2024-03-23T07:09:09;11.63;;;1.77;;
31754;SDS011;18325;52.018;4.726;2024-03-23T07:11:34;3.57;;;0.93;;
31754;SDS011;18325;52.018;4.726;2024-03-23T07:14:02;6.20;;;1.30;;
31754;SDS011;18325;52.018;4.726;2024-03-23T07:16:27;3.93;;;1.17;;
31754;SDS011;18325;52.018;4.726;2024-03-23T07:18:54;2.00;;;1.40;;
31754;SDS011;18325;52.018;4.726;2024-03-23T07:21:20;9.13;;;1.93;;
31754;SDS011;18325;52.018;4.726;2024-03-23T07:23:47;6.83;;;1.40;;
31754;SDS011;18325;52.018;4.726;2024-03-23T07:26:12;4.73;;;1.60;;
31754;SDS011;18325;52.018;4.726;2024-03-23T07:28:39;7.97;;;1.30;;
31754;SDS011;18325;52.018;4.726;2024-03-23T07:31:10;7.70;;;2.03;;
31754;SDS011;18325;52.018;4.726;2024-03-23T07:33:40;11.13;;;1.90;;
31754;SDS011;18325;52.018;4.726;2024-03-23T07:36:07;9.13;;;1.67;;
31754;SDS011;18325;52.018;4.726;2024-03-23T07:38:33;11.43;;;1.83;;
31754;SDS011;18325;52.018;4.726;2024-03-23T07:41:03;9.77;;;1.70;;
31754;SDS011;18325;52.018;4.726;2024-03-23T07:43:30;7.53;;;1.40;;
31754;SDS011;18325;52.018;4.726;2024-03-23T07:45:55;8.30;;;1.43;;
31754;SDS011;18325;52.018;4.726;2024-03-23T07:48:23;6.43;;;1.47;;
31754;SDS011;18325;52.018;4.726;2024-03-23T07:50:56;5.13;;;1.37;;
31754;SDS011;18325;52.018;4.726;2024-03-23T07:53:25;6.30;;;1.77;;
31754;SDS011;18325;52.018;4.726;2024-03-23T07:55:54;8.87;;;1.50;;
31754;SDS011;18325;52.018;4.726;2024-03-23T07:58:22;5.00;;;1.47;;
31754;SDS011;18325;52.018;4.726;2024-03-23T08:00:47;8.37;;;1.30;;
31754;SDS011;18325;52.018;4.726;2024-03-23T08:03:14;4.67;;;1.60;;
31754;SDS011;18325;52.018;4.726;2024-03-23T08:05:41;2.80;;;1.40;;
31754;SDS011;18325;52.018;4.726;2024-03-23T08:08:07;4.53;;;0.87;;
31754;SDS011;18325;52.018;4.726;2024-03-23T08:10:33;5.37;;;1.50;;
31754;SDS011;18325;52.018;4.726;2024-03-23T08:12:59;4.33;;;1.30;;
31754;SDS011;18325;52.018;4.726;2024-03-23T08:15:25;3.93;;;0.90;;
31754;SDS011;18325;52.018;4.726;2024-03-23T08:17:51;2.63;;;1.00;;
31754;SDS011;18325;52.018;4.726;2024-03-23T08:20:17;7.73;;;1.60;;
31754;SDS011;18325;52.018;4.726;2024-03-23T08:22:44;3.83;;;1.40;;
31754;SDS011;18325;52.018;4.726;2024-03-23T08:25:10;5.20;;;1.40;;
31754;SDS011;18325;52.018;4.726;2024-03-23T08:27:36;9.60;;;1.50;;
31754;SDS011;18325;52.018;4.726;2024-03-23T08:30:02;2.07;;;1.50;;
31754;SDS011;18325;52.018;4.726;2024-03-23T08:32:29;10.53;;;1.60;;
31754;SDS011;18325;52.018;4.726;2024-03-23T08:34:54;5.60;;;1.93;;
31754;SDS011;18325;52.018;4.726;2024-03-23T08:37:21;6.30;;;1.20;;
31754;SDS011;18325;52.018;4.726;2024-03-23T08:39:48;4.93;;;1.60;;
31754;SDS011;18325;52.018;4.726;2024-03-23T08:42:17;6.13;;;1.73;;
31754;SDS011;18325;52.018;4.726;2024-03-23T08:44:43;2.70;;;1.03;;
31754;SDS011;18325;52.018;4.726;2024-03-23T08:47:11;5.80;;;1.40;;
31754;SDS011;18325;52.018;4.726;2024-03-23T08:49:37;7.63;;;1.57;;
31754;SDS011;18325;52.018;4.726;2024-03-23T08:52:03;6.80;;;1.33;;
31754;SDS011;18325;52.018;4.726;2024-03-23T08:54:29;5.50;;;1.70;;
31754;SDS011;18325;52.018;4.726;2024-03-23T08:56:57;2.87;;;1.43;;
31754;SDS011;18325;52.018;4.726;2024-03-23T08:59:23;2.20;;;1.20;;
31754;SDS011;18325;52.018;4.726;2024-03-23T09:01:49;2.77;;;0.80;;
31754;SDS011;18325;52.018;4.726;2024-03-23T09:04:15;2.50;;;1.20;;
31754;SDS011;18325;52.018;4.726;2024-03-23T09:06:43;7.03;;;1.77;;
31754;SDS011;18325;52.018;4.726;2024-03-23T09:09:08;9.43;;;1.47;;
31754;SDS011;18325;52.018;4.726;2024-03-23T09:11:35;5.20;;;1.93;;
31754;SDS011;18325;52.018;4.726;2024-03-23T09:14:03;4.40;;;1.23;;
31754;SDS011;18325;52.018;4.726;2024-03-23T09:16:30;10.63;;;2.33;;
31754;SDS011;18325;52.018;4.726;2024-03-23T09:18:55;10.90;;;2.90;;
31754;SDS011;18325;52.018;4.726;2024-03-23T09:21:22;5.43;;;1.20;;
31754;SDS011;18325;52.018;4.726;2024-03-23T09:23:47;4.63;;;1.50;;
31754;SDS011;18325;52.018;4.726;2024-03-23T09:26:14;3.27;;;1.47;;
31754;SDS011;18325;52.018;4.726;2024-03-23T09:28:40;11.13;;;1.70;;
31754;SDS011;18325;52.018;4.726;2024-03-23T09:31:08;3.90;;;1.10;;
31754;SDS011;18325;52.018;4.726;2024-03-23T09:33:34;2.97;;;1.20;;
31754;SDS011;18325;52.018;4.726;2024-03-23T09:36:02;7.03;;;1.47;;
31754;SDS011;18325;52.018;4.726;2024-03-23T09:38:28;5.43;;;1.53;;
31754;SDS011;18325;52.018;4.726;2024-03-23T09:40:55;7.70;;;1.70;;
31754;SDS011;18325;52.018;4.726;2024-03-23T09:43:20;9.53;;;1.20;;
31754;SDS011;18325;52.018;4.726;2024-03-23T09:45:47;6.43;;;1.23;;
31754;SDS011;18325;52.018;4.726;2024-03-23T09:48:17;4.83;;;1.10;;
31754;SDS011;18325;52.018;4.726;2024-03-23T09:50:43;2.33;;;0.97;;
31754;SDS011;18325;52.018;4.726;2024-03-23T09:53:10;5.43;;;1.20;;
31754;SDS011;18325;52.018;4.726;2024-03-23T09:55:38;3.40;;;1.40;;
31754;SDS011;18325;52.018;4.726;2024-03-23T09:58:04;6.27;;;1.10;;
31754;SDS011;18325;52.018;4.726;2024-03-23T10:00:31;4.07;;;1.47;;
31754;SDS011;18325;52.018;4.726;2024-03-23T10:02:57;8.10;;;1.30;;
31754;SDS011;18325;52.018;4.726;2024-03-23T10:05:28;6.13;;;1.43;;
31754;SDS011;18325;52.018;4.726;2024-03-23T10:07:54;5.17;;;1.20;;
31754;SDS011;18325;52.018;4.726;2024-03-23T10:10:21;4.07;;;1.07;;
31754;SDS011;18325;52.018;4.726;2024-03-23T10:12:47;2.97;;;1.20;;
31754;SDS011;18325;52.018;4.726;2024-03-23T10:15:17;6.17;;;1.47;;
31754;SDS011;18325;52.018;4.726;2024-03-23T10:17:43;10.03;;;1.93;;
31754;SDS011;18325;52.018;4.726;2024-03-23T10:20:10;6.77;;;1.20;;
31754;SDS011;18325;52.018;4.726;2024-03-23T10:22:38;4.63;;;1.13;;
31754;SDS011;18325;52.018;4.726;2024-03-23T10:25:08;4.37;;;1.13;;
31754;SDS011;18325;52.018;4.726;2024-03-23T10:27:34;3.20;;;1.40;;
31754;SDS011;18325;52.018;4.726;2024-03-23T10:30:07;2.40;;;1.00;;
31754;SDS011;18325;52.018;4.726;2024-03-23T10:32:33;6.73;;;1.20;;
31754;SDS011;18325;52.018;4.726;2024-03-23T10:35:13;5.47;;;1.77;;
31754;SDS011;18325;52.018;4.726;2024-03-23T10:37:41;3.17;;;1.17;;
31754;SDS011;18325;52.018;4.726;2024-03-23T10:40:09;5.80;;;1.50;;
31754;SDS011;18325;52.018;4.726;2024-03-23T10:42:36;2.97;;;1.03;;
31754;SDS011;18325;52.018;4.726;2024-03-23T10:45:04;7.33;;;1.30;;
31754;SDS011;18325;52.018;4.726;2024-03-23T10:47:29;10.73;;;1.50;;
31754;SDS011;18325;52.018;4.726;2024-03-23T10:49:56;5.20;;;1.67;;
31754;SDS011;18325;52.018;4.726;2024-03-23T10:52:22;8.87;;;1.70;;
31754;SDS011;18325;52.018;4.726;2024-03-23T10:54:50;4.50;;;1.23;;
31754;SDS011;18325;52.018;4.726;2024-03-23T10:57:17;8.07;;;2.20;;
31754;SDS011;18325;52.018;4.726;2024-03-23T10:59:46;5.63;;;1.60;;
31754;SDS011;18325;52.018;4.726;2024-03-23T11:02:18;7.00;;;1.20;;
31754;SDS011;18325;52.018;4.726;2024-03-23T11:04:45;7.20;;;1.20;;
31754;SDS011;18325;52.018;4.726;2024-03-23T11:07:28;5.37;;;1.50;;
31754;SDS011;18325;52.018;4.726;2024-03-23T11:09:57;3.13;;;0.97;;
31754;SDS011;18325;52.018;4.726;2024-03-23T11:12:27;7.27;;;1.47;;
31754;SDS011;18325;52.018;4.726;2024-03-23T11:14:56;5.70;;;1.93;;
31754;SDS011;18325;52.018;4.726;2024-03-23T11:17:24;6.70;;;1.40;;
31754;SDS011;18325;52.018;4.726;2024-03-23T11:19:54;4.80;;;1.97;;
31754;SDS011;18325;52.018;4.726;2024-03-23T11:22:40;2.70;;;0.93;;
31754;SDS011;18325;52.018;4.726;2024-03-23T11:25:16;2.53;;;1.20;;
31754;SDS011;18325;52.018;4.726;2024-03-23T11:27:43;6.07;;;1.10;;
31754;SDS011;18325;52.018;4.726;2024-03-23T11:30:13;5.57;;;1.47;;
31754;SDS011;18325;52.018;4.726;2024-03-23T11:32:40;7.70;;;1.80;;
31754;SDS011;18325;52.018;4.726;2024-03-23T11:35:08;4.77;;;1.73;;
31754;SDS011;18325;52.018;4.726;2024-03-23T11:37:35;6.53;;;1.60;;
31754;SDS011;18325;52.018;4.726;2024-03-23T11:42:45;5.00;;;1.27;;
31754;SDS011;18325;52.018;4.726;2024-03-23T11:45:12;4.93;;;1.03;;
31754;SDS011;18325;52.018;4.726;2024-03-23T11:47:38;3.67;;;1.30;;
31754;SDS011;18325;52.018;4.726;2024-03-23T11:50:04;6.20;;;1.20;;
31754;SDS011;18325;52.018;4.726;2024-03-23T11:52:30;4.83;;;1.03;;
31754;SDS011;18325;52.018;4.726;2024-03-23T11:55:02;2.93;;;0.90;;
31754;SDS011;18325;52.018;4.726;2024-03-23T11:57:30;3.93;;;0.90;;
31754;SDS011;18325;52.018;4.726;2024-03-23T11:59:56;6.40;;;1.60;;
31754;SDS011;18325;52.018;4.726;2024-03-23T12:02:22;8.80;;;2.07;;
31754;SDS011;18325;52.018;4.726;2024-03-23T12:04:49;6.53;;;1.37;;
31754;SDS011;18325;52.018;4.726;2024-03-23T12:07:15;3.07;;;0.93;;
31754;SDS011;18325;52.018;4.726;2024-03-23T12:09:44;6.23;;;1.30;;
31754;SDS011;18325;52.018;4.726;2024-03-23T12:12:12;4.53;;;1.20;;
31754;SDS011;18325;52.018;4.726;2024-03-23T12:14:42;4.17;;;1.37;;
31754;SDS011;18325;52.018;4.726;2024-03-23T12:17:11;6.20;;;1.23;;
31754;SDS011;18325;52.018;4.726;2024-03-23T12:19:38;4.80;;;0.87;;
31754;SDS011;18325;52.018;4.726;2024-03-23T12:22:04;6.23;;;1.63;;
31754;SDS011;18325;52.018;4.726;2024-03-23T12:24:31;5.80;;;1.53;;
31754;SDS011;18325;52.018;4.726;2024-03-23T12:26:59;3.40;;;1.43;;
31754;SDS011;18325;52.018;4.726;2024-03-23T12:29:27;5.40;;;0.80;;
31754;SDS011;18325;52.018;4.726;2024-03-23T12:31:55;6.47;;;1.17;;
31754;SDS011;18325;52.018;4.726;2024-03-23T12:34:22;6.80;;;1.60;;
31754;SDS011;18325;52.018;4.726;2024-03-23T12:36:47;7.23;;;1.93;;
31754;SDS011;18325;52.018;4.726;2024-03-23T12:39:13;4.57;;;1.17;;
31754;SDS011;18325;52.018;4.726;2024-03-23T12:41:39;4.57;;;1.10;;
31754;SDS011;18325;52.018;4.726;2024-03-23T12:44:05;5.40;;;0.90;;
31754;SDS011;18325;52.018;4.726;2024-03-23T12:46:33;1.23;;;0.60;;
31754;SDS011;18325;52.018;4.726;2024-03-23T12:49:01;2.00;;;0.53;;
31754;SDS011;18325;52.018;4.726;2024-03-23T12:51:27;3.60;;;0.90;;
31754;SDS011;18325;52.018;4.726;2024-03-23T12:53:53;3.67;;;0.90;;
31754;SDS011;18325;52.018;4.726;2024-03-23T12:56:19;6.50;;;1.00;;
31754;SDS011;18325;52.018;4.726;2024-03-23T12:58:45;8.27;;;1.00;;
31754;SDS011;18325;52.018;4.726;2024-03-23T13:01:13;1.90;;;0.83;;
31754;SDS011;18325;52.018;4.726;2024-03-23T13:03:39;4.80;;;1.10;;
31754;SDS011;18325;52.018;4.726;2024-03-23T13:06:07;3.20;;;0.97;;
31754;SDS011;18325;52.018;4.726;2024-03-23T13:08:33;6.10;;;1.20;;
31754;SDS011;18325;52.018;4.726;2024-03-23T13:11:00;4.00;;;1.00;;
31754;SDS011;18325;52.018;4.726;2024-03-23T13:13:25;6.90;;;1.03;;
31754;SDS011;18325;52.018;4.726;2024-03-23T13:15:52;7.40;;;1.30;;
31754;SDS011;18325;52.018;4.726;2024-03-23T13:18:17;4.53;;;1.17;;
31754;SDS011;18325;52.018;4.726;2024-03-23T13:20:44;3.33;;;1.10;;
31754;SDS011;18325;52.018;4.726;2024-03-23T13:23:11;2.30;;;1.33;;
31754;SDS011;18325;52.018;4.726;2024-03-23T13:25:37;3.80;;;1.30;;
31754;SDS011;18325;52.018;4.726;2024-03-23T13:28:03;3.07;;;1.10;;
31754;SDS011;18325;52.018;4.726;2024-03-23T13:30:30;10.87;;;1.40;;
31754;SDS011;18325;52.018;4.726;2024-03-23T13:32:55;5.63;;;1.50;;
31754;SDS011;18325;52.018;4.726;2024-03-23T13:35:21;4.10;;;1.20;;
31754;SDS011;18325;52.018;4.726;2024-03-23T13:37:47;6.80;;;2.30;;
31754;SDS011;18325;52.018;4.726;2024-03-23T13:40:15;2.73;;;1.40;;
31754;SDS011;18325;52.018;4.726;2024-03-23T13:42:41;4.07;;;1.57;;
31754;SDS011;18325;52.018;4.726;2024-03-23T13:45:08;7.03;;;1.27;;
31754;SDS011;18325;52.018;4.726;2024-03-23T13:47:36;4.63;;;1.10;;
31754;SDS011;18325;52.018;4.726;2024-03-23T13:50:03;6.57;;;0.97;;
31754;SDS011;18325;52.018;4.726;2024-03-23T13:52:29;3.93;;;0.90;;
31754;SDS011;18325;52.018;4.726;2024-03-23T13:54:56;2.17;;;0.77;;
31754;SDS011;18325;52.018;4.726;2024-03-23T13:57:23;4.27;;;1.20;;
31754;SDS011;18325;52.018;4.726;2024-03-23T13:59:51;6.67;;;1.07;;
31754;SDS011;18325;52.018;4.726;2024-03-23T14:02:16;7.70;;;1.60;;
31754;SDS011;18325;52.018;4.726;2024-03-23T14:04:43;3.93;;;1.30;;
31754;SDS011;18325;52.018;4.726;2024-03-23T14:07:08;3.43;;;1.10;;
31754;SDS011;18325;52.018;4.726;2024-03-23T14:09:35;3.77;;;1.17;;
31754;SDS011;18325;52.018;4.726;2024-03-23T14:12:01;5.83;;;1.40;;
31754;SDS011;18325;52.018;4.726;2024-03-23T14:14:29;2.83;;;0.60;;
31754;SDS011;18325;52.018;4.726;2024-03-23T14:16:54;2.53;;;0.80;;
31754;SDS011;18325;52.018;4.726;2024-03-23T14:19:21;0.97;;;0.70;;
31754;SDS011;18325;52.018;4.726;2024-03-23T14:21:46;2.07;;;0.70;;
31754;SDS011;18325;52.018;4.726;2024-03-23T14:24:13;1.60;;;0.90;;
31754;SDS011;18325;52.018;4.726;2024-03-23T14:26:38;2.33;;;0.80;;
31754;SDS011;18325;52.018;4.726;2024-03-23T14:29:06;3.70;;;0.93;;
31754;SDS011;18325;52.018;4.726;2024-03-23T14:31:33;6.30;;;1.90;;
31754;SDS011;18325;52.018;4.726;2024-03-23T14:34:00;4.13;;;0.83;;
31754;SDS011;18325;52.018;4.726;2024-03-23T14:36:26;3.13;;;0.80;;
31754;SDS011;18325;52.018;4.726;2024-03-23T14:38:52;2.53;;;0.97;;
31754;SDS011;18325;52.018;4.726;2024-03-23T14:41:18;0.70;;;0.70;;
31754;SDS011;18325;52.018;4.726;2024-03-23T14:43:44;4.67;;;1.30;;
31754;SDS011;18325;52.018;4.726;2024-03-23T14:46:12;2.83;;;1.00;;
31754;SDS011;18325;52.018;4.726;2024-03-23T14:48:41;2.97;;;0.97;;
31754;SDS011;18325;52.018;4.726;2024-03-23T14:51:07;6.53;;;1.20;;
31754;SDS011;18325;52.018;4.726;2024-03-23T14:53:34;0.73;;;0.73;;
31754;SDS011;18325;52.018;4.726;2024-03-23T14:56:01;1.70;;;0.73;;
31754;SDS011;18325;52.018;4.726;2024-03-23T14:58:28;3.43;;;1.00;;
31754;SDS011;18325;52.018;4.726;2024-03-23T15:00:59;4.93;;;1.17;;
31754;SDS011;18325;52.018;4.726;2024-03-23T15:03:27;2.57;;;0.80;;
31754;SDS011;18325;52.018;4.726;2024-03-23T15:05:54;5.47;;;1.10;;
31754;SDS011;18325;52.018;4.726;2024-03-23T15:08:21;6.47;;;1.33;;
31754;SDS011;18325;52.018;4.726;2024-03-23T15:10:46;5.33;;;1.07;;
31754;SDS011;18325;52.018;4.726;2024-03-23T15:13:13;7.03;;;1.23;;
31754;SDS011;18325;52.018;4.726;2024-03-23T15:15:39;5.13;;;1.40;;
31754;SDS011;18325;52.018;4.726;2024-03-23T15:18:08;4.53;;;1.20;;
31754;SDS011;18325;52.018;4.726;2024-03-23T15:20:34;3.27;;;1.40;;
31754;SDS011;18325;52.018;4.726;2024-03-23T15:23:03;1.77;;;0.77;;
31754;SDS011;18325;52.018;4.726;2024-03-23T15:25:28;2.27;;;1.10;;
31754;SDS011;18325;52.018;4.726;2024-03-23T15:27:55;8.13;;;1.10;;
31754;SDS011;18325;52.018;4.726;2024-03-23T15:30:22;2.87;;;1.07;;
31754;SDS011;18325;52.018;4.726;2024-03-23T15:32:49;3.40;;;1.60;;
31754;SDS011;18325;52.018;4.726;2024-03-23T15:35:14;5.63;;;1.53;;
31754;SDS011;18325;52.018;4.726;2024-03-23T15:37:41;2.43;;;1.73;;
31754;SDS011;18325;52.018;4.726;2024-03-23T15:40:08;3.87;;;1.10;;
31754;SDS011;18325;52.018;4.726;2024-03-23T15:42:36;5.30;;;1.50;;
31754;SDS011;18325;52.018;4.726;2024-03-23T15:45:02;3.53;;;1.47;;
31754;SDS011;18325;52.018;4.726;2024-03-23T15:47:32;3.77;;;1.17;;
31754;SDS011;18325;52.018;4.726;2024-03-23T15:49:57;1.63;;;0.93;;
31754;SDS011;18325;52.018;4.726;2024-03-23T15:52:24;2.20;;;0.83;;
31754;SDS011;18325;52.018;4.726;2024-03-23T15:54:50;2.57;;;0.80;;
31754;SDS011;18325;52.018;4.726;2024-03-23T15:57:18;2.87;;;0.83;;
31754;SDS011;18325;52.018;4.726;2024-03-23T15:59:44;4.67;;;0.87;;
31754;SDS011;18325;52.018;4.726;2024-03-23T16:02:10;4.77;;;0.80;;
31754;SDS011;18325;52.018;4.726;2024-03-23T16:04:36;1.50;;;0.70;;
31754;SDS011;18325;52.018;4.726;2024-03-23T16:07:02;1.27;;;1.17;;
31754;SDS011;18325;52.018;4.726;2024-03-23T16:09:28;1.57;;;0.80;;
31754;SDS011;18325;52.018;4.726;2024-03-23T16:11:54;2.07;;;1.10;;
31754;SDS011;18325;52.018;4.726;2024-03-23T16:14:21;1.63;;;0.63;;
31754;SDS011;18325;52.018;4.726;2024-03-23T16:16:48;4.23;;;0.97;;
31754;SDS011;18325;52.018;4.726;2024-03-23T16:19:14;5.50;;;0.80;;
31754;SDS011;18325;52.018;4.726;2024-03-23T16:21:41;3.67;;;1.00;;
31754;SDS011;18325;52.018;4.726;2024-03-23T16:24:06;2.63;;;0.60;;
31754;SDS011;18325;52.018;4.726;2024-03-23T16:26:34;6.77;;;0.90;;
31754;SDS011;18325;52.018;4.726;2024-03-23T16:28:59;2.20;;;1.00;;
31754;SDS011;18325;52.018;4.726;2024-03-23T16:31:27;3.57;;;1.00;;